createdAt,value
2018-04-22T00:00:05.938Z,992.41
2018-04-22T00:01:06.068Z,992.43
2018-04-22T00:02:06.208Z,992.39
2018-04-22T00:03:06.367Z,992.35
2018-04-22T00:04:06.499Z,992.38
2018-04-22T00:05:06.639Z,992.39
2018-04-22T00:06:06.792Z,992.36
2018-04-22T00:07:06.935Z,992.38
2018-04-22T00:08:07.072Z,992.33
2018-04-22T00:09:07.236Z,992.33
2018-04-22T00:10:07.371Z,992.33
2018-04-22T00:11:07.524Z,992.31
2018-04-22T00:12:07.659Z,992.32
2018-04-22T00:13:07.801Z,992.25
2018-04-22T00:14:07.957Z,992.26
2018-04-22T00:15:08.092Z,992.25
2018-04-22T00:16:08.232Z,992.27
2018-04-22T00:17:08.372Z,992.26
2018-04-22T00:18:08.578Z,992.22
2018-04-22T00:19:08.676Z,992.19
2018-04-22T00:20:08.814Z,992.17
2018-04-22T00:21:08.951Z,992.17
2018-04-22T00:22:09.095Z,992.18
2018-04-22T00:23:09.230Z,992.15
2018-04-22T00:24:09.379Z,992.14
2018-04-22T00:25:09.512Z,992.15
2018-04-22T00:26:09.648Z,992.12
2018-04-22T00:27:09.800Z,992.14
2018-04-22T00:28:09.952Z,992.10
2018-04-22T00:29:10.074Z,992.10
2018-04-22T00:30:10.217Z,992.08
2018-04-22T00:31:10.398Z,992.09
2018-04-22T00:32:10.557Z,992.08
2018-04-22T00:33:10.684Z,992.09
2018-04-22T00:34:10.824Z,992.07
2018-04-22T00:35:10.966Z,992.08
2018-04-22T00:36:11.108Z,992.05
2018-04-22T00:37:11.243Z,992.02
2018-04-22T00:38:11.381Z,992.04
2018-04-22T00:39:11.513Z,992.05
2018-04-22T00:40:11.646Z,992.02
2018-04-22T00:41:11.781Z,992.00
2018-04-22T00:42:12.024Z,991.97
2018-04-22T00:43:12.083Z,991.97
2018-04-22T00:44:12.219Z,991.92
2018-04-22T00:45:12.361Z,991.95
2018-04-22T00:46:12.526Z,991.94
2018-04-22T00:47:12.658Z,991.92
2018-04-22T00:48:12.800Z,991.93
2018-04-22T00:49:12.976Z,991.90
2018-04-22T00:50:13.108Z,991.84
2018-04-22T00:51:13.247Z,991.85
2018-04-22T00:52:14.335Z,991.87
2018-04-22T00:53:13.532Z,991.85
2018-04-22T00:54:13.666Z,991.85
2018-04-22T00:55:13.800Z,991.82
2018-04-22T00:56:13.937Z,991.86
2018-04-22T00:57:14.079Z,991.82
2018-04-22T00:58:14.225Z,991.83
2018-04-22T00:59:14.368Z,991.82
2018-04-22T01:00:14.496Z,991.84
2018-04-22T01:01:14.645Z,991.80
2018-04-22T01:02:14.776Z,991.81
2018-04-22T01:03:14.911Z,991.76
2018-04-22T01:04:15.049Z,991.77
2018-04-22T01:05:15.186Z,991.76
2018-04-22T01:06:15.334Z,991.73
2018-04-22T01:07:15.471Z,991.73
2018-04-22T01:08:15.609Z,991.72
2018-04-22T01:09:15.744Z,991.69
2018-04-22T01:10:15.885Z,991.71
2018-04-22T01:11:16.016Z,991.69
2018-04-22T01:12:16.155Z,991.68
2018-04-22T01:13:16.292Z,991.66
2018-04-22T01:14:16.463Z,991.66
2018-04-22T01:15:16.595Z,991.64
2018-04-22T01:16:16.735Z,991.64
2018-04-22T01:17:16.875Z,991.58
2018-04-22T01:18:17.026Z,991.61
2018-04-22T01:19:17.155Z,991.59
2018-04-22T01:20:17.300Z,991.60
2018-04-22T01:21:17.518Z,991.60
2018-04-22T01:22:17.539Z,991.62
2018-04-22T01:23:17.680Z,991.62
2018-04-22T01:24:17.833Z,991.61
2018-04-22T01:25:17.968Z,991.64
2018-04-22T01:26:18.095Z,991.66
2018-04-22T01:27:18.235Z,991.63
2018-04-22T01:28:18.375Z,991.63
2018-04-22T01:29:18.511Z,991.65
2018-04-22T01:30:18.724Z,991.67
2018-04-22T01:31:18.736Z,991.63
2018-04-22T01:32:18.881Z,991.64
2018-04-22T01:33:19.030Z,991.62
2018-04-22T01:34:19.164Z,991.60
2018-04-22T01:35:19.303Z,991.64
2018-04-22T01:36:19.441Z,991.64
2018-04-22T01:37:19.581Z,991.67
2018-04-22T01:38:19.725Z,991.62
2018-04-22T01:39:19.866Z,991.64
2018-04-22T01:40:20.014Z,991.64
2018-04-22T01:41:20.153Z,991.58
2018-04-22T01:42:20.288Z,991.59
2018-04-22T01:43:20.430Z,991.56
2018-04-22T01:44:20.565Z,991.58
2018-04-22T01:45:20.711Z,991.59
2018-04-22T01:46:20.843Z,991.61
2018-04-22T01:47:20.981Z,991.61
2018-04-22T01:48:21.123Z,991.58
2018-04-22T01:49:21.258Z,991.58
2018-04-22T01:50:21.399Z,991.54
2018-04-22T01:51:21.537Z,991.57
2018-04-22T01:52:21.678Z,991.60
2018-04-22T01:53:21.809Z,991.58
2018-04-22T01:54:21.952Z,991.55
2018-04-22T01:55:22.091Z,991.55
2018-04-22T01:56:22.226Z,991.59
2018-04-22T01:57:22.365Z,991.59
2018-04-22T01:58:22.506Z,991.58
2018-04-22T01:59:22.643Z,991.58
2018-04-22T02:00:22.776Z,991.58
2018-04-22T02:01:22.919Z,991.54
2018-04-22T02:02:23.099Z,991.53
2018-04-22T02:03:23.228Z,991.52
2018-04-22T02:04:23.368Z,991.55
2018-04-22T02:05:23.503Z,991.52
2018-04-22T02:06:23.669Z,991.53
2018-04-22T02:07:23.798Z,991.53
2018-04-22T02:08:23.937Z,991.53
2018-04-22T02:09:24.071Z,991.53
2018-04-22T02:10:24.227Z,991.52
2018-04-22T02:11:24.364Z,991.51
2018-04-22T02:12:24.507Z,991.45
2018-04-22T02:13:24.691Z,991.47
2018-04-22T02:14:24.831Z,991.46
2018-04-22T02:15:24.989Z,991.48
2018-04-22T02:16:25.130Z,991.46
2018-04-22T02:17:25.307Z,991.47
2018-04-22T02:18:25.443Z,991.45
2018-04-22T02:19:25.590Z,991.45
2018-04-22T02:20:25.744Z,991.44
2018-04-22T02:21:25.874Z,991.42
2018-04-22T02:22:26.018Z,991.41
2018-04-22T02:23:26.164Z,991.41
2018-04-22T02:24:26.288Z,991.42
2018-04-22T02:25:26.428Z,991.40
2018-04-22T02:26:26.571Z,991.40
2018-04-22T02:27:26.723Z,991.36
2018-04-22T02:28:26.852Z,991.35
2018-04-22T02:29:27.073Z,991.39
2018-04-22T02:30:27.093Z,991.38
2018-04-22T02:31:27.244Z,991.37
2018-04-22T02:32:27.374Z,991.34
2018-04-22T02:33:27.509Z,991.33
2018-04-22T02:34:27.647Z,991.32
2018-04-22T02:35:27.806Z,991.32
2018-04-22T02:36:27.940Z,991.30
2018-04-22T02:37:28.077Z,991.32
2018-04-22T02:38:28.219Z,991.31
2018-04-22T02:39:28.368Z,991.33
2018-04-22T02:40:28.504Z,991.31
2018-04-22T02:41:28.649Z,991.34
2018-04-22T02:42:28.782Z,991.34
2018-04-22T02:43:28.946Z,991.34
2018-04-22T02:44:29.058Z,991.37
2018-04-22T02:45:29.195Z,991.31
2018-04-22T02:46:29.338Z,991.32
2018-04-22T02:47:29.473Z,991.29
2018-04-22T02:48:29.610Z,991.25
2018-04-22T02:49:29.753Z,991.25
2018-04-22T02:50:29.884Z,991.24
2018-04-22T02:51:30.029Z,991.23
2018-04-22T02:52:30.167Z,991.26
2018-04-22T02:53:30.311Z,991.17
2018-04-22T02:54:30.443Z,991.21
2018-04-22T02:55:30.586Z,991.20
2018-04-22T02:56:30.723Z,991.18
2018-04-22T02:57:30.862Z,991.17
2018-04-22T02:58:31.007Z,991.12
2018-04-22T02:59:31.144Z,991.13
2018-04-22T03:00:31.284Z,991.14
2018-04-22T03:01:31.431Z,991.10
2018-04-22T03:02:31.572Z,991.13
2018-04-22T03:03:31.709Z,991.09
2018-04-22T03:04:31.847Z,991.04
2018-04-22T03:05:31.990Z,991.02
2018-04-22T03:06:32.126Z,990.99
2018-04-22T03:07:32.266Z,990.99
2018-04-22T03:08:32.396Z,990.94
2018-04-22T03:09:32.550Z,990.90
2018-04-22T03:10:32.766Z,990.90
2018-04-22T03:11:32.774Z,990.90
2018-04-22T03:12:32.908Z,990.87
2018-04-22T03:13:33.059Z,990.87
2018-04-22T03:14:33.193Z,990.87
2018-04-22T03:15:33.334Z,990.89
2018-04-22T03:16:33.497Z,990.84
2018-04-22T03:17:33.634Z,990.79
2018-04-22T03:18:33.770Z,990.76
2018-04-22T03:19:33.909Z,990.75
2018-04-22T03:20:34.074Z,990.76
2018-04-22T03:21:34.205Z,990.71
2018-04-22T03:22:34.347Z,990.69
2018-04-22T03:23:34.481Z,990.69
2018-04-22T03:24:34.633Z,990.69
2018-04-22T03:25:34.771Z,990.65
2018-04-22T03:26:34.910Z,990.66
2018-04-22T03:27:35.049Z,990.67
2018-04-22T03:28:35.204Z,990.66
2018-04-22T03:29:35.335Z,990.65
2018-04-22T03:30:35.679Z,990.65
2018-04-22T03:31:35.552Z,990.67
2018-04-22T03:32:35.708Z,990.63
2018-04-22T03:33:35.834Z,990.63
2018-04-22T03:34:36.226Z,990.63
2018-04-22T03:35:36.143Z,990.63
2018-04-22T03:36:36.317Z,990.63
2018-04-22T03:37:36.411Z,990.59
2018-04-22T03:38:36.548Z,990.60
2018-04-22T03:39:36.731Z,990.60
2018-04-22T03:40:36.876Z,990.62
2018-04-22T03:41:37.000Z,990.64
2018-04-22T03:42:37.194Z,990.64
2018-04-22T03:43:37.286Z,990.70
2018-04-22T03:44:37.420Z,990.69
2018-04-22T03:45:37.559Z,990.69
2018-04-22T03:46:37.706Z,990.70
2018-04-22T03:47:37.840Z,990.70
2018-04-22T03:48:37.980Z,990.71
2018-04-22T03:49:38.117Z,990.72
2018-04-22T03:50:38.265Z,990.72
2018-04-22T03:51:38.393Z,990.67
2018-04-22T03:52:38.531Z,990.68
2018-04-22T03:53:38.665Z,990.71
2018-04-22T03:54:38.806Z,990.65
2018-04-22T03:55:38.951Z,990.70
2018-04-22T03:56:39.090Z,990.73
2018-04-22T03:57:39.228Z,990.71
2018-04-22T03:58:39.369Z,990.69
2018-04-22T03:59:39.508Z,990.73
2018-04-22T04:00:39.645Z,990.71
2018-04-22T04:01:39.779Z,990.68
2018-04-22T04:02:39.919Z,990.69
2018-04-22T04:03:40.061Z,990.71
2018-04-22T04:04:40.197Z,990.71
2018-04-22T04:05:40.342Z,990.67
2018-04-22T04:06:40.477Z,990.71
2018-04-22T04:07:40.613Z,990.70
2018-04-22T04:08:40.746Z,990.68
2018-04-22T04:09:40.890Z,990.66
2018-04-22T04:10:41.024Z,990.70
2018-04-22T04:11:41.167Z,990.70
2018-04-22T04:12:41.300Z,990.73
2018-04-22T04:13:41.442Z,990.72
2018-04-22T04:14:41.575Z,990.72
2018-04-22T04:15:41.716Z,990.68
2018-04-22T04:16:41.852Z,990.74
2018-04-22T04:17:42.000Z,990.73
2018-04-22T04:18:42.131Z,990.70
2018-04-22T04:19:42.270Z,990.71
2018-04-22T04:20:42.405Z,990.73
2018-04-22T04:21:42.572Z,990.71
2018-04-22T04:22:42.705Z,990.69
2018-04-22T04:23:42.852Z,990.74
2018-04-22T04:24:42.992Z,990.72
2018-04-22T04:25:43.173Z,990.73
2018-04-22T04:26:43.300Z,990.74
2018-04-22T04:27:43.429Z,990.68
2018-04-22T04:28:43.567Z,990.67
2018-04-22T04:29:43.722Z,990.66
2018-04-22T04:30:43.857Z,990.66
2018-04-22T04:31:43.995Z,990.67
2018-04-22T04:32:44.133Z,990.62
2018-04-22T04:33:44.286Z,990.64
2018-04-22T04:34:44.417Z,990.67
2018-04-22T04:35:44.577Z,990.66
2018-04-22T04:36:44.714Z,990.68
2018-04-22T04:37:44.873Z,990.71
2018-04-22T04:38:45.081Z,990.70
2018-04-22T04:39:45.090Z,990.71
2018-04-22T04:40:45.238Z,990.66
2018-04-22T04:41:45.376Z,990.72
2018-04-22T04:42:45.508Z,990.69
2018-04-22T04:43:45.645Z,990.65
2018-04-22T04:44:45.789Z,990.69
2018-04-22T04:45:45.921Z,990.67
2018-04-22T04:46:46.067Z,990.70
2018-04-22T04:47:46.195Z,990.66
2018-04-22T04:48:46.375Z,990.70
2018-04-22T04:49:46.505Z,990.67
2018-04-22T04:50:46.641Z,990.64
2018-04-22T04:51:46.817Z,990.64
2018-04-22T04:52:46.949Z,990.66
2018-04-22T04:53:47.081Z,990.61
2018-04-22T04:54:47.221Z,990.65
2018-04-22T04:55:47.379Z,990.68
2018-04-22T04:56:47.523Z,990.66
2018-04-22T04:57:47.667Z,990.62
2018-04-22T04:58:47.804Z,990.64
2018-04-22T04:59:47.941Z,990.63
2018-04-22T05:00:48.083Z,990.65
2018-04-22T05:01:48.224Z,990.62
2018-04-22T05:02:48.363Z,990.63
2018-04-22T05:03:48.499Z,990.65
2018-04-22T05:04:48.641Z,990.59
2018-04-22T05:05:48.775Z,990.57
2018-04-22T05:06:48.913Z,990.61
2018-04-22T05:07:49.052Z,990.55
2018-04-22T05:08:49.193Z,990.56
2018-04-22T05:09:49.333Z,990.56
2018-04-22T05:10:49.470Z,990.56
2018-04-22T05:11:49.609Z,990.55
2018-04-22T05:12:49.742Z,990.54
2018-04-22T05:13:49.894Z,990.52
2018-04-22T05:14:50.026Z,990.54
2018-04-22T05:15:50.201Z,990.54
2018-04-22T05:16:50.316Z,990.53
2018-04-22T05:17:50.462Z,990.55
2018-04-22T05:18:50.593Z,990.51
2018-04-22T05:19:50.814Z,990.54
2018-04-22T05:20:50.830Z,990.51
2018-04-22T05:21:50.964Z,990.54
2018-04-22T05:22:51.107Z,990.56
2018-04-22T05:23:51.241Z,990.58
2018-04-22T05:24:51.386Z,990.57
2018-04-22T05:25:51.521Z,990.58
2018-04-22T05:26:51.662Z,990.56
2018-04-22T05:27:51.799Z,990.56
2018-04-22T05:28:51.953Z,990.52
2018-04-22T05:29:52.088Z,990.52
2018-04-22T05:30:52.231Z,990.59
2018-04-22T05:31:52.367Z,990.58
2018-04-22T05:32:52.503Z,990.58
2018-04-22T05:33:52.630Z,990.61
2018-04-22T05:34:52.769Z,990.60
2018-04-22T05:35:52.916Z,990.59
2018-04-22T05:36:53.057Z,990.60
2018-04-22T05:37:53.192Z,990.62
2018-04-22T05:38:53.352Z,990.60
2018-04-22T05:39:53.491Z,990.63
2018-04-22T05:40:53.626Z,990.55
2018-04-22T05:41:53.783Z,990.57
2018-04-22T05:42:53.914Z,990.57
2018-04-22T05:43:54.053Z,990.56
2018-04-22T05:44:54.194Z,990.59
2018-04-22T05:45:54.361Z,990.59
2018-04-22T05:46:54.506Z,990.58
2018-04-22T05:47:54.634Z,990.55
2018-04-22T05:48:54.775Z,990.60
2018-04-22T05:49:54.979Z,990.57
2018-04-22T05:50:55.066Z,990.58
2018-04-22T05:51:55.203Z,990.56
2018-04-22T05:52:55.354Z,990.58
2018-04-22T05:53:55.495Z,990.52
2018-04-22T05:54:55.635Z,990.51
2018-04-22T05:55:55.766Z,990.53
2018-04-22T05:56:55.928Z,990.49
2018-04-22T05:57:56.052Z,990.52
2018-04-22T05:58:56.193Z,990.49
2018-04-22T05:59:56.335Z,990.52
2018-04-22T06:00:56.481Z,990.52
2018-04-22T06:01:56.608Z,990.52
2018-04-22T06:02:56.745Z,990.53
2018-04-22T06:03:56.899Z,990.54
2018-04-22T06:04:57.034Z,990.52
2018-04-22T06:05:57.175Z,990.54
2018-04-22T06:06:57.329Z,990.50
2018-04-22T06:07:57.469Z,990.53
2018-04-22T06:08:57.610Z,990.52
2018-04-22T06:09:57.751Z,990.51
2018-04-22T06:10:57.885Z,990.55
2018-04-22T06:11:58.013Z,990.54
2018-04-22T06:12:58.153Z,990.53
2018-04-22T06:13:58.292Z,990.53
2018-04-22T06:14:58.438Z,990.57
2018-04-22T06:15:58.575Z,990.58
2018-04-22T06:16:58.706Z,990.56
2018-04-22T06:17:58.859Z,990.58
2018-04-22T06:18:58.993Z,990.56
2018-04-22T06:19:59.142Z,990.59
2018-04-22T06:20:59.291Z,990.54
2018-04-22T06:21:59.426Z,990.53
2018-04-22T06:22:59.573Z,990.55
2018-04-22T06:23:59.710Z,990.53
2018-04-22T06:24:59.849Z,990.52
2018-04-22T06:25:59.983Z,990.50
2018-04-22T06:27:00.121Z,990.50
2018-04-22T06:28:00.313Z,990.48
2018-04-22T06:29:00.441Z,990.43
2018-04-22T06:30:00.582Z,990.44
2018-04-22T06:31:00.716Z,990.43
2018-04-22T06:32:00.851Z,990.39
2018-04-22T06:33:01.037Z,990.33
2018-04-22T06:34:01.145Z,990.35
2018-04-22T06:35:01.277Z,990.33
2018-04-22T06:36:01.445Z,990.29
2018-04-22T06:37:01.579Z,990.32
2018-04-22T06:38:01.712Z,990.32
2018-04-22T06:39:01.847Z,990.34
2018-04-22T06:40:02.002Z,990.36
2018-04-22T06:41:02.138Z,990.30
2018-04-22T06:42:02.287Z,990.34
2018-04-22T06:43:02.419Z,990.29
2018-04-22T06:44:02.579Z,990.30
2018-04-22T06:45:02.716Z,990.29
2018-04-22T06:46:02.865Z,990.27
2018-04-22T06:47:03.013Z,990.23
2018-04-22T06:48:03.140Z,990.26
2018-04-22T06:49:03.284Z,990.20
2018-04-22T06:50:03.468Z,990.20
2018-04-22T06:51:03.581Z,990.16
2018-04-22T06:52:03.719Z,990.15
2018-04-22T06:53:03.866Z,990.15
2018-04-22T06:54:04.023Z,990.15
2018-04-22T06:55:04.162Z,990.10
2018-04-22T06:56:04.295Z,990.15
2018-04-22T06:57:04.454Z,990.12
2018-04-22T06:58:04.602Z,990.09
2018-04-22T06:59:04.734Z,990.09
2018-04-22T07:00:04.885Z,990.07
2018-04-22T07:01:05.048Z,990.06
2018-04-22T07:02:05.185Z,990.06
2018-04-22T07:03:05.337Z,990.04
2018-04-22T07:04:05.477Z,990.08
2018-04-22T07:05:05.641Z,990.00
2018-04-22T07:06:05.782Z,990.01
2018-04-22T07:07:05.930Z,990.01
2018-04-22T07:08:06.078Z,989.99
2018-04-22T07:09:06.215Z,990.02
2018-04-22T07:10:06.362Z,990.03
2018-04-22T07:11:06.503Z,990.02
2018-04-22T07:12:06.641Z,990.03
2018-04-22T07:13:06.779Z,990.04
2018-04-22T07:14:06.917Z,990.02
2018-04-22T07:15:07.086Z,989.99
2018-04-22T07:16:07.222Z,990.03
2018-04-22T07:17:07.358Z,989.95
2018-04-22T07:18:07.535Z,989.97
2018-04-22T07:19:07.666Z,989.96
2018-04-22T07:20:07.808Z,989.93
2018-04-22T07:21:07.947Z,989.96
2018-04-22T07:22:08.089Z,989.96
2018-04-22T07:23:08.222Z,989.95
2018-04-22T07:24:08.362Z,989.97
2018-04-22T07:25:08.507Z,990.00
2018-04-22T07:26:08.653Z,989.99
2018-04-22T07:27:08.802Z,990.00
2018-04-22T07:28:08.932Z,990.01
2018-04-22T07:29:09.079Z,989.99
2018-04-22T07:30:09.239Z,990.04
2018-04-22T07:31:09.536Z,990.01
2018-04-22T07:32:09.535Z,990.01
2018-04-22T07:33:09.619Z,990.01
2018-04-22T07:34:09.753Z,990.03
2018-04-22T07:35:09.889Z,990.08
2018-04-22T07:36:10.040Z,990.06
2018-04-22T07:37:10.175Z,990.04
2018-04-22T07:38:10.326Z,990.09
2018-04-22T07:39:10.463Z,990.06
2018-04-22T07:40:10.612Z,990.04
2018-04-22T07:41:10.773Z,990.06
2018-04-22T07:42:10.914Z,990.03
2018-04-22T07:43:11.087Z,990.05
2018-04-22T07:44:11.364Z,990.01
2018-04-22T07:45:11.429Z,990.00
2018-04-22T07:46:11.566Z,990.02
2018-04-22T07:47:12.340Z,990.00
2018-04-22T07:48:11.879Z,990.03
2018-04-22T07:49:12.024Z,990.01
2018-04-22T07:50:12.149Z,990.00
2018-04-22T07:51:12.286Z,990.02
2018-04-22T07:52:12.576Z,990.00
2018-04-22T07:53:12.611Z,989.99
2018-04-22T07:54:12.770Z,989.99
2018-04-22T07:55:12.908Z,989.97
2018-04-22T07:56:13.048Z,989.94
2018-04-22T07:57:13.213Z,989.89
2018-04-22T07:58:13.362Z,989.94
2018-04-22T07:59:13.503Z,989.90
2018-04-22T08:00:13.648Z,989.88
2018-04-22T08:01:13.786Z,989.88
2018-04-22T08:02:13.950Z,989.89
2018-04-22T08:03:14.062Z,989.90
2018-04-22T08:04:14.199Z,989.91
2018-04-22T08:05:14.338Z,989.90
2018-04-22T08:06:14.468Z,989.89
2018-04-22T08:07:14.602Z,989.91
2018-04-22T08:08:14.746Z,989.90
2018-04-22T08:09:14.891Z,989.90
2018-04-22T08:10:16.731Z,989.91
2018-04-22T08:11:15.175Z,989.91
2018-04-22T08:12:15.321Z,989.91
2018-04-22T08:13:15.458Z,989.89
2018-04-22T08:14:15.630Z,989.96
2018-04-22T08:15:15.723Z,989.92
2018-04-22T08:16:15.897Z,989.90
2018-04-22T08:17:16.014Z,989.90
2018-04-22T08:18:16.148Z,989.93
2018-04-22T08:19:16.287Z,989.88
2018-04-22T08:20:16.431Z,989.91
2018-04-22T08:21:16.578Z,989.86
2018-04-22T08:22:16.714Z,989.88
2018-04-22T08:23:16.860Z,989.87
2018-04-22T08:24:17.002Z,989.91
2018-04-22T08:25:17.138Z,989.88
2018-04-22T08:26:17.299Z,989.85
2018-04-22T08:27:17.431Z,989.82
2018-04-22T08:28:17.610Z,989.85
2018-04-22T08:29:17.765Z,989.84
2018-04-22T08:30:17.888Z,989.82
2018-04-22T08:31:18.029Z,989.82
2018-04-22T08:32:18.176Z,989.81
2018-04-22T08:33:18.357Z,989.76
2018-04-22T08:34:18.457Z,989.75
2018-04-22T08:35:18.597Z,989.76
2018-04-22T08:36:18.741Z,989.77
2018-04-22T08:37:18.877Z,989.74
2018-04-22T08:38:19.025Z,989.74
2018-04-22T08:39:19.159Z,989.75
2018-04-22T08:40:19.299Z,989.77
2018-04-22T08:41:19.456Z,989.73
2018-04-22T08:42:19.606Z,989.71
2018-04-22T08:43:19.750Z,989.69
2018-04-22T08:44:19.890Z,989.68
2018-04-22T08:45:20.023Z,989.69
2018-04-22T08:46:20.160Z,989.68
2018-04-22T08:47:20.340Z,989.70
2018-04-22T08:48:20.437Z,989.69
2018-04-22T08:49:20.575Z,989.73
2018-04-22T08:50:20.741Z,989.69
2018-04-22T08:51:20.883Z,989.71
2018-04-22T08:52:21.029Z,989.67
2018-04-22T08:53:21.203Z,989.65
2018-04-22T08:54:21.337Z,989.63
2018-04-22T08:55:21.487Z,989.63
2018-04-22T08:56:21.631Z,989.63
2018-04-22T08:57:21.778Z,989.61
2018-04-22T08:58:21.923Z,989.67
2018-04-22T08:59:22.103Z,989.65
2018-04-22T09:00:22.198Z,989.64
2018-04-22T09:01:22.340Z,989.67
2018-04-22T09:02:22.481Z,989.60
2018-04-22T09:03:22.620Z,989.62
2018-04-22T09:04:22.770Z,989.62
2018-04-22T09:05:22.918Z,989.58
2018-04-22T09:06:23.059Z,989.62
2018-04-22T09:07:23.199Z,989.55
2018-04-22T09:08:23.350Z,989.57
2018-04-22T09:09:23.479Z,989.56
2018-04-22T09:10:23.628Z,989.55
2018-04-22T09:11:23.772Z,989.52
2018-04-22T09:12:23.917Z,989.53
2018-04-22T09:13:24.075Z,989.51
2018-04-22T09:14:24.204Z,989.46
2018-04-22T09:15:24.367Z,989.46
2018-04-22T09:16:24.583Z,989.42
2018-04-22T09:17:24.665Z,989.46
2018-04-22T09:18:24.801Z,989.43
2018-04-22T09:19:24.944Z,989.43
2018-04-22T09:20:25.159Z,989.40
2018-04-22T09:21:25.192Z,989.39
2018-04-22T09:22:25.330Z,989.36
2018-04-22T09:23:25.475Z,989.32
2018-04-22T09:24:25.612Z,989.30
2018-04-22T09:25:25.759Z,989.33
2018-04-22T09:26:25.901Z,989.32
2018-04-22T09:27:26.048Z,989.29
2018-04-22T09:28:26.189Z,989.29
2018-04-22T09:29:26.335Z,989.25
2018-04-22T09:30:26.474Z,989.26
2018-04-22T09:31:26.602Z,989.23
2018-04-22T09:32:26.752Z,989.25
2018-04-22T09:33:26.894Z,989.23
2018-04-22T09:34:27.039Z,989.26
2018-04-22T09:35:27.186Z,989.23
2018-04-22T09:36:27.322Z,989.23
2018-04-22T09:37:27.466Z,989.21
2018-04-22T09:38:27.620Z,989.23
2018-04-22T09:39:27.745Z,989.22
2018-04-22T09:40:27.893Z,989.16
2018-04-22T09:41:28.038Z,989.18
2018-04-22T09:42:28.182Z,989.13
2018-04-22T09:43:28.326Z,989.12
2018-04-22T09:44:28.476Z,989.11
2018-04-22T09:45:28.620Z,989.13
2018-04-22T09:46:28.772Z,989.12
2018-04-22T09:47:28.909Z,989.16
2018-04-22T09:48:29.057Z,989.12
2018-04-22T09:49:29.202Z,989.08
2018-04-22T09:50:29.340Z,989.08
2018-04-22T09:51:29.478Z,989.05
2018-04-22T09:52:29.628Z,989.10
2018-04-22T09:53:29.787Z,989.03
2018-04-22T09:54:29.918Z,989.01
2018-04-22T09:55:30.056Z,988.98
2018-04-22T09:56:30.196Z,988.92
2018-04-22T09:57:30.334Z,988.93
2018-04-22T09:58:30.480Z,988.93
2018-04-22T09:59:30.633Z,988.88
2018-04-22T10:00:30.777Z,988.90
2018-04-22T10:01:30.933Z,988.87
2018-04-22T10:02:31.073Z,988.86
2018-04-22T10:03:31.220Z,988.83
2018-04-22T10:04:31.367Z,988.84
2018-04-22T10:05:31.514Z,988.81
2018-04-22T10:06:31.664Z,988.76
2018-04-22T10:07:31.809Z,988.76
2018-04-22T10:08:31.942Z,988.85
2018-04-22T10:09:32.085Z,988.74
2018-04-22T10:10:32.238Z,988.76
2018-04-22T10:11:32.378Z,988.77
2018-04-22T10:12:32.525Z,988.79
2018-04-22T10:13:32.673Z,988.70
2018-04-22T10:14:32.833Z,988.72
2018-04-22T10:15:32.962Z,988.65
2018-04-22T10:16:33.162Z,988.67
2018-04-22T10:17:33.266Z,988.59
2018-04-22T10:18:33.423Z,988.59
2018-04-22T10:19:33.573Z,988.62
2018-04-22T10:20:33.730Z,988.57
2018-04-22T10:21:34.696Z,988.51
2018-04-22T10:22:33.946Z,988.48
2018-04-22T10:23:34.084Z,988.49
2018-04-22T10:24:34.232Z,988.48
2018-04-22T10:25:34.390Z,988.47
2018-04-22T10:26:34.536Z,988.43
2018-04-22T10:27:34.689Z,988.46
2018-04-22T10:28:34.849Z,988.41
2018-04-22T10:29:34.984Z,988.37
2018-04-22T10:30:35.127Z,988.40
2018-04-22T10:31:35.319Z,988.34
2018-04-22T10:32:35.465Z,988.35
2018-04-22T10:33:35.624Z,988.36
2018-04-22T10:34:35.756Z,988.31
2018-04-22T10:35:35.918Z,988.21
2018-04-22T10:36:36.044Z,988.26
2018-04-22T10:37:36.178Z,988.20
2018-04-22T10:38:36.334Z,988.28
2018-04-22T10:39:36.475Z,988.43
2018-04-22T10:40:36.627Z,988.50
2018-04-22T10:41:36.868Z,988.64
2018-04-22T10:42:36.884Z,988.57
2018-04-22T10:43:37.054Z,988.53
2018-04-22T10:44:37.201Z,988.44
2018-04-22T10:45:37.367Z,988.53
2018-04-22T10:46:37.520Z,988.51
2018-04-22T10:47:37.660Z,988.41
2018-04-22T10:48:37.801Z,988.44
2018-04-22T10:49:37.955Z,988.47
2018-04-22T10:50:38.099Z,988.38
2018-04-22T10:51:38.245Z,988.34
2018-04-22T10:52:38.704Z,988.63
2018-04-22T10:53:38.486Z,988.45
2018-04-22T10:54:38.632Z,988.22
2018-04-22T10:55:38.781Z,988.17
2018-04-22T10:56:38.928Z,988.14
2018-04-22T10:57:39.072Z,988.21
2018-04-22T10:58:39.275Z,988.13
2018-04-22T10:59:39.297Z,988.12
2018-04-22T11:00:39.451Z,988.14
2018-04-22T11:01:39.587Z,988.23
2018-04-22T11:02:39.735Z,988.28
2018-04-22T11:03:39.878Z,988.37
2018-04-22T11:04:40.077Z,988.48
2018-04-22T11:05:40.186Z,988.64
2018-04-22T11:06:40.389Z,988.61
2018-04-22T11:07:40.438Z,988.56
2018-04-22T11:08:40.589Z,988.51
2018-04-22T11:09:40.737Z,988.51
2018-04-22T11:10:40.891Z,988.51
2018-04-22T11:11:41.041Z,988.42
2018-04-22T11:12:41.187Z,988.32
2018-04-22T11:13:41.341Z,988.46
2018-04-22T11:14:41.739Z,988.17
2018-04-22T11:15:41.816Z,988.15
2018-04-22T11:16:41.720Z,988.14
2018-04-22T11:17:41.891Z,988.16
2018-04-22T11:18:42.035Z,988.09
2018-04-22T11:19:42.185Z,988.27
2018-04-22T11:20:42.332Z,988.32
2018-04-22T11:21:42.479Z,988.18
2018-04-22T11:22:42.630Z,988.21
2018-04-22T11:23:42.787Z,988.27
2018-04-22T11:24:42.948Z,988.29
2018-04-22T11:25:43.087Z,988.31
2018-04-22T11:26:43.248Z,988.35
2018-04-22T11:27:43.400Z,988.42
2018-04-22T11:28:43.545Z,988.38
2018-04-22T11:29:43.700Z,988.39
2018-04-22T11:30:43.855Z,988.32
2018-04-22T11:31:43.998Z,988.31
2018-04-22T11:32:44.150Z,988.23
2018-04-22T11:33:44.294Z,988.28
2018-04-22T11:34:44.445Z,988.31
2018-04-22T11:35:44.589Z,988.28
2018-04-22T11:36:44.748Z,988.30
2018-04-22T11:37:44.956Z,988.23
2018-04-22T11:38:44.995Z,988.25
2018-04-22T11:39:45.146Z,988.26
2018-04-22T11:40:45.299Z,988.23
2018-04-22T11:41:45.452Z,988.18
2018-04-22T11:42:45.596Z,988.07
2018-04-22T11:43:45.744Z,988.04
2018-04-22T11:44:45.897Z,988.07
2018-04-22T11:45:46.047Z,988.11
2018-04-22T11:46:46.195Z,988.17
2018-04-22T11:47:46.376Z,988.10
2018-04-22T11:48:46.538Z,988.11
2018-04-22T11:49:46.691Z,988.09
2018-04-22T11:50:46.839Z,988.02
2018-04-22T11:51:47.009Z,987.92
2018-04-22T11:52:47.281Z,987.90
2018-04-22T11:53:47.312Z,987.89
2018-04-22T11:54:47.465Z,987.84
2018-04-22T11:55:47.625Z,987.86
2018-04-22T11:56:47.775Z,987.89
2018-04-22T11:57:47.921Z,987.92
2018-04-22T11:58:48.079Z,987.88
2018-04-22T11:59:48.253Z,988.03
2018-04-22T12:00:48.405Z,988.02
2018-04-22T12:01:48.547Z,988.00
2018-04-22T12:02:48.692Z,988.01
2018-04-22T12:03:48.890Z,987.96
2018-04-22T12:04:49.007Z,988.19
2018-04-22T12:05:49.168Z,987.98
2018-04-22T12:06:49.311Z,987.92
2018-04-22T12:07:49.463Z,987.79
2018-04-22T12:08:49.616Z,987.87
2018-04-22T12:09:49.765Z,987.78
2018-04-22T12:10:49.925Z,987.71
2018-04-22T12:11:50.059Z,987.69
2018-04-22T12:12:50.211Z,987.58
2018-04-22T12:13:50.370Z,987.65
2018-04-22T12:14:50.520Z,987.76
2018-04-22T12:15:50.667Z,987.77
2018-04-22T12:16:50.809Z,987.72
2018-04-22T12:17:52.220Z,987.71
2018-04-22T12:18:51.134Z,987.75
2018-04-22T12:19:51.279Z,987.78
2018-04-22T12:20:51.432Z,987.81
2018-04-22T12:21:51.578Z,987.71
2018-04-22T12:22:51.738Z,987.67
2018-04-22T12:23:51.887Z,987.63
2018-04-22T12:24:52.047Z,987.72
2018-04-22T12:25:52.188Z,987.61
2018-04-22T12:26:52.333Z,987.57
2018-04-22T12:27:52.479Z,987.61
2018-04-22T12:28:52.625Z,987.54
2018-04-22T12:29:52.782Z,987.49